createdAt,value
2023-05-06T00:00:08.504Z,13.78
2023-05-06T00:02:43.164Z,13.68
2023-05-06T00:05:10.495Z,13.71
2023-05-06T00:07:37.752Z,13.63
2023-05-06T00:10:05.255Z,13.60
2023-05-06T00:12:32.278Z,13.52
2023-05-06T00:14:59.280Z,13.48
2023-05-06T00:17:26.381Z,13.38
2023-05-06T00:19:53.509Z,13.39
2023-05-06T00:22:20.487Z,13.35
2023-05-06T00:24:47.725Z,13.38
2023-05-06T00:27:14.668Z,13.33
2023-05-06T00:29:41.810Z,13.29
2023-05-06T00:32:08.840Z,13.26
2023-05-06T00:34:36.024Z,13.30
2023-05-06T00:37:03.437Z,13.29
2023-05-06T00:39:30.895Z,13.35
2023-05-06T00:42:02.451Z,13.34
2023-05-06T00:44:30.358Z,13.29
2023-05-06T00:46:59.513Z,13.32
2023-05-06T00:49:28.206Z,13.24
2023-05-06T00:51:56.829Z,13.22
2023-05-06T00:54:26.349Z,13.10
2023-05-06T00:56:54.400Z,13.05
2023-05-06T00:59:23.004Z,13.04
2023-05-06T01:01:50.292Z,12.99
2023-05-06T01:04:17.195Z,13.01
2023-05-06T01:06:55.581Z,13.02
2023-05-06T01:09:51.529Z,12.90
2023-05-06T01:12:34.353Z,12.81
2023-05-06T01:15:13.113Z,12.77
2023-05-06T01:17:44.358Z,12.77
2023-05-06T01:20:13.074Z,12.79
2023-05-06T01:22:40.220Z,12.87
2023-05-06T01:25:08.419Z,12.85
2023-05-06T01:27:35.722Z,12.80
2023-05-06T01:30:05.158Z,12.81
2023-05-06T01:32:55.173Z,12.75
2023-05-06T01:35:35.667Z,12.72
2023-05-06T01:38:35.057Z,12.63
2023-05-06T01:41:03.111Z,12.67
2023-05-06T01:43:38.468Z,12.68
2023-05-06T01:46:07.218Z,12.63
2023-05-06T01:48:37.266Z,12.57
2023-05-06T01:51:04.472Z,12.52
2023-05-06T01:53:33.339Z,12.47
2023-05-06T01:56:04.178Z,12.44
2023-05-06T01:58:31.289Z,12.39
2023-05-06T02:00:58.706Z,12.34
2023-05-06T02:03:25.990Z,12.33
2023-05-06T02:05:53.140Z,12.35
2023-05-06T02:08:20.875Z,12.41
2023-05-06T02:10:48.085Z,12.38
2023-05-06T02:13:15.171Z,12.38
2023-05-06T02:15:42.689Z,12.37
2023-05-06T02:18:15.159Z,12.33
2023-05-06T02:20:42.147Z,12.31
2023-05-06T02:23:14.957Z,12.30
2023-05-06T02:25:41.956Z,12.29
2023-05-06T02:28:08.835Z,12.32
2023-05-06T02:30:36.766Z,12.26
2023-05-06T02:33:03.989Z,12.26
2023-05-06T02:35:30.962Z,12.20
2023-05-06T02:37:57.988Z,12.18
2023-05-06T02:40:25.105Z,12.35
2023-05-06T02:42:52.563Z,12.45
2023-05-06T02:45:19.665Z,12.54
2023-05-06T02:47:46.654Z,12.37
2023-05-06T02:50:13.616Z,12.53
2023-05-06T02:52:40.585Z,12.33
2023-05-06T02:55:07.911Z,12.26
2023-05-06T02:57:34.920Z,12.39
2023-05-06T03:00:02.014Z,12.56
2023-05-06T03:02:29.006Z,12.50
2023-05-06T03:04:56.082Z,12.44
2023-05-06T03:07:23.008Z,12.40
2023-05-06T03:09:50.087Z,12.35
2023-05-06T03:12:17.125Z,12.30
2023-05-06T03:14:44.179Z,12.27
2023-05-06T03:17:11.585Z,12.18
2023-05-06T03:19:38.542Z,12.21
2023-05-06T03:22:07.612Z,12.24
2023-05-06T03:24:38.009Z,12.26
2023-05-06T03:27:06.571Z,12.19
2023-05-06T03:29:33.494Z,12.19
2023-05-06T03:32:04.539Z,12.15
2023-05-06T03:34:37.349Z,12.09
2023-05-06T03:37:04.344Z,12.03
2023-05-06T03:39:31.289Z,11.94
2023-05-06T03:41:59.523Z,12.02
2023-05-06T03:44:26.940Z,12.04
2023-05-06T03:46:53.914Z,12.04
2023-05-06T03:49:23.006Z,12.01
2023-05-06T03:51:50.118Z,12.01
2023-05-06T03:54:18.386Z,11.96
2023-05-06T03:56:46.440Z,11.96
2023-05-06T03:59:15.161Z,11.99
2023-05-06T04:01:42.940Z,12.03
2023-05-06T04:04:11.662Z,12.06
2023-05-06T04:06:39.147Z,12.06
2023-05-06T04:09:06.558Z,12.19
2023-05-06T04:11:36.579Z,12.24
2023-05-06T04:14:04.900Z,12.42
2023-05-06T04:16:32.311Z,12.65
2023-05-06T04:18:59.243Z,12.86
2023-05-06T04:21:26.257Z,12.90
2023-05-06T04:24:02.718Z,12.86
2023-05-06T04:26:36.859Z,12.93
2023-05-06T04:29:04.546Z,12.83
2023-05-06T04:31:35.273Z,12.75
2023-05-06T04:34:06.165Z,12.80
2023-05-06T04:36:33.941Z,12.94
2023-05-06T04:39:27.243Z,12.97
2023-05-06T04:41:54.627Z,13.19
2023-05-06T04:44:29.694Z,13.53
2023-05-06T04:46:57.628Z,13.72
2023-05-06T04:49:24.588Z,13.68
2023-05-06T04:51:51.942Z,13.46
2023-05-06T04:54:19.291Z,13.61
2023-05-06T04:56:46.448Z,14.23
2023-05-06T04:59:15.386Z,14.54
2023-05-06T05:01:43.769Z,15.33
2023-05-06T05:04:11.676Z,16.13
2023-05-06T05:06:39.832Z,16.50
2023-05-06T05:09:06.885Z,16.62
2023-05-06T05:11:38.307Z,16.81
2023-05-06T05:14:05.381Z,17.25
2023-05-06T05:16:32.925Z,17.53
2023-05-06T05:19:03.528Z,17.95
2023-05-06T05:21:33.111Z,18.28
2023-05-06T05:24:00.545Z,18.30
2023-05-06T05:26:27.593Z,17.68
2023-05-06T05:28:56.306Z,17.76
2023-05-06T05:31:24.052Z,17.67
2023-05-06T05:33:51.485Z,17.59
2023-05-06T05:36:21.519Z,16.69
2023-05-06T05:38:50.950Z,16.62
2023-05-06T05:41:19.109Z,16.46
2023-05-06T05:43:46.226Z,17.06
2023-05-06T05:46:14.561Z,17.34
2023-05-06T05:48:42.589Z,17.77
2023-05-06T05:51:10.773Z,17.73
2023-05-06T05:53:38.119Z,18.19
2023-05-06T05:56:06.564Z,18.22
2023-05-06T05:58:34.180Z,18.28
2023-05-06T06:01:01.870Z,18.33
2023-05-06T06:03:29.485Z,18.66
2023-05-06T06:05:56.658Z,18.27
2023-05-06T06:08:26.649Z,17.97
2023-05-06T06:10:55.111Z,18.03
2023-05-06T06:13:28.420Z,17.99
2023-05-06T06:15:56.761Z,18.12
2023-05-06T06:18:24.433Z,18.08
2023-05-06T06:20:53.262Z,17.82
2023-05-06T06:23:21.319Z,17.30
2023-05-06T06:25:49.521Z,17.18
2023-05-06T06:28:16.618Z,17.33
2023-05-06T06:30:44.777Z,17.05
2023-05-06T06:33:12.080Z,17.46
2023-05-06T06:35:40.186Z,16.93
2023-05-06T06:38:07.045Z,17.07
2023-05-06T06:40:34.040Z,17.45
2023-05-06T06:43:01.458Z,17.74
2023-05-06T06:45:50.086Z,17.52
2023-05-06T06:48:17.158Z,18.01
2023-05-06T06:50:44.175Z,18.40
2023-05-06T06:53:11.293Z,18.52
2023-05-06T06:55:38.374Z,18.56
2023-05-06T06:58:05.576Z,18.56
2023-05-06T07:00:32.528Z,18.46
2023-05-06T07:02:59.440Z,18.54
2023-05-06T07:05:27.281Z,18.41
2023-05-06T07:07:55.513Z,18.63
2023-05-06T07:10:22.823Z,18.88
2023-05-06T07:12:49.878Z,18.88
2023-05-06T07:15:16.862Z,19.15
2023-05-06T07:17:44.197Z,19.07
2023-05-06T07:20:11.798Z,19.43
2023-05-06T07:22:39.334Z,19.58
2023-05-06T07:25:06.851Z,19.88
2023-05-06T07:27:33.819Z,19.39
2023-05-06T07:30:00.924Z,19.56
2023-05-06T07:32:28.020Z,19.75
2023-05-06T07:34:54.912Z,19.58
2023-05-06T07:37:21.873Z,19.56
2023-05-06T07:39:48.955Z,20.01
2023-05-06T07:42:15.930Z,20.26
2023-05-06T07:44:42.904Z,20.07
2023-05-06T07:47:10.010Z,19.79
2023-05-06T07:49:37.129Z,19.83
2023-05-06T07:52:04.400Z,20.19
2023-05-06T07:54:32.014Z,20.20
2023-05-06T07:56:59.254Z,20.22
2023-05-06T07:59:26.249Z,20.31
2023-05-06T08:01:53.296Z,20.39
2023-05-06T08:04:20.254Z,20.57
2023-05-06T08:06:47.217Z,20.94
2023-05-06T08:09:22.327Z,20.81
2023-05-06T08:11:50.900Z,20.85
2023-05-06T08:14:17.815Z,20.62
2023-05-06T08:16:44.980Z,20.69
2023-05-06T08:19:12.074Z,21.05
2023-05-06T08:21:39.124Z,21.24
2023-05-06T08:24:06.359Z,20.68
2023-05-06T08:26:33.300Z,20.92
2023-05-06T08:29:00.429Z,21.19
2023-05-06T08:31:27.420Z,21.63
2023-05-06T08:33:54.783Z,21.56
2023-05-06T08:36:22.615Z,21.57
2023-05-06T08:38:51.138Z,21.81
2023-05-06T08:41:19.925Z,21.81
2023-05-06T08:43:48.682Z,21.94
2023-05-06T08:46:15.996Z,21.93
2023-05-06T08:48:43.327Z,21.77
2023-05-06T08:51:15.506Z,21.79
2023-05-06T08:53:49.519Z,21.64
2023-05-06T08:56:17.477Z,21.52
2023-05-06T08:58:50.036Z,21.96
2023-05-06T09:01:17.331Z,21.95
2023-05-06T09:03:44.403Z,21.90
2023-05-06T09:06:11.487Z,22.24
2023-05-06T09:08:38.382Z,22.56
2023-05-06T09:11:23.753Z,22.55
2023-05-06T09:13:51.744Z,22.60
2023-05-06T09:16:29.644Z,22.82
2023-05-06T09:18:57.393Z,22.98
2023-05-06T09:21:34.375Z,22.84
2023-05-06T09:24:03.090Z,22.49
2023-05-06T09:26:31.777Z,22.61
2023-05-06T09:29:00.146Z,22.54
2023-05-06T09:31:28.803Z,22.71
2023-05-06T09:33:58.108Z,22.84
2023-05-06T09:36:31.798Z,22.90
2023-05-06T09:38:59.535Z,23.15
2023-05-06T09:41:26.665Z,23.39
2023-05-06T09:43:54.816Z,23.36
2023-05-06T09:46:22.990Z,23.21
2023-05-06T09:48:54.658Z,23.42
2023-05-06T09:51:21.838Z,23.38
2023-05-06T09:53:49.184Z,23.49
2023-05-06T09:56:16.737Z,23.52
2023-05-06T09:58:43.857Z,23.40
2023-05-06T10:01:19.154Z,23.03
2023-05-06T10:03:53.909Z,23.39
2023-05-06T10:06:23.528Z,23.80
2023-05-06T10:08:51.183Z,23.61
2023-05-06T10:11:19.316Z,23.53
2023-05-06T10:13:47.197Z,23.80
2023-05-06T10:16:15.835Z,23.85
2023-05-06T10:18:46.021Z,24.20
2023-05-06T10:21:22.137Z,24.06
2023-05-06T10:23:57.523Z,23.96
2023-05-06T10:26:27.668Z,23.98
2023-05-06T10:28:55.110Z,23.98
2023-05-06T10:31:22.261Z,24.23
2023-05-06T10:33:52.305Z,24.28
2023-05-06T10:36:24.761Z,23.81
2023-05-06T10:38:57.031Z,23.65
2023-05-06T10:41:28.103Z,23.71
2023-05-06T10:44:00.324Z,23.89
2023-05-06T10:46:31.054Z,24.43
2023-05-06T10:49:08.597Z,24.74
2023-05-06T10:51:38.024Z,24.50
2023-05-06T10:54:21.872Z,24.39
2023-05-06T10:56:48.846Z,23.98
2023-05-06T10:59:24.471Z,23.92
2023-05-06T11:01:56.599Z,24.13
2023-05-06T11:04:23.627Z,24.52
2023-05-06T11:06:53.933Z,24.66
2023-05-06T11:09:20.853Z,24.50
2023-05-06T11:11:47.756Z,24.57
2023-05-06T11:14:32.694Z,24.69
2023-05-06T11:17:01.758Z,24.48
2023-05-06T11:19:31.198Z,24.54
2023-05-06T11:21:58.952Z,24.58
2023-05-06T11:24:30.770Z,24.14
2023-05-06T11:26:59.909Z,24.06
2023-05-06T11:29:27.273Z,24.31
2023-05-06T11:31:54.429Z,24.33
2023-05-06T11:34:29.309Z,24.45
2023-05-06T11:37:02.557Z,24.39
2023-05-06T11:39:34.906Z,24.73
2023-05-06T11:42:08.128Z,25.00
2023-05-06T11:44:37.012Z,25.15
2023-05-06T11:47:06.184Z,24.86
2023-05-06T11:49:42.212Z,25.00
2023-05-06T11:52:10.932Z,25.02
2023-05-06T11:54:42.184Z,24.98
2023-05-06T11:57:09.829Z,24.67
2023-05-06T11:59:38.483Z,24.65
2023-05-06T12:02:10.563Z,24.82
2023-05-06T12:04:48.106Z,24.98
2023-05-06T12:07:16.494Z,25.18
2023-05-06T12:09:47.364Z,25.11
2023-05-06T12:12:24.108Z,25.01
2023-05-06T12:14:53.015Z,24.79
2023-05-06T12:17:20.459Z,24.71
2023-05-06T12:19:47.853Z,24.52
2023-05-06T12:22:27.373Z,24.81
2023-05-06T12:24:54.477Z,24.96
2023-05-06T12:27:35.683Z,25.32
2023-05-06T12:30:04.900Z,25.39
2023-05-06T12:32:32.375Z,25.10
2023-05-06T12:35:00.682Z,25.44
2023-05-06T12:37:29.212Z,25.75
2023-05-06T12:40:08.223Z,25.53
2023-05-06T12:42:35.403Z,25.68
2023-05-06T12:45:14.630Z,25.96
2023-05-06T12:47:52.180Z,26.11
2023-05-06T12:50:39.808Z,26.15
2023-05-06T12:53:09.733Z,25.73
2023-05-06T12:55:38.720Z,25.40
2023-05-06T12:58:16.102Z,25.41
2023-05-06T13:00:43.113Z,25.67
2023-05-06T13:03:11.719Z,25.70
2023-05-06T13:05:38.878Z,25.68
2023-05-06T13:08:06.485Z,25.55
2023-05-06T13:10:33.454Z,25.70
2023-05-06T13:13:00.575Z,25.78
2023-05-06T13:15:27.854Z,25.90
2023-05-06T13:17:55.269Z,25.50
2023-05-06T13:20:22.415Z,25.21
2023-05-06T13:22:54.837Z,25.89
2023-05-06T13:25:22.902Z,25.86
2023-05-06T13:27:49.901Z,25.97
2023-05-06T13:30:17.216Z,25.74
2023-05-06T13:32:46.200Z,25.54
2023-05-06T13:35:13.390Z,25.58
2023-05-06T13:37:40.360Z,25.30
2023-05-06T13:40:08.949Z,25.17
2023-05-06T13:42:36.726Z,25.42
2023-05-06T13:45:03.880Z,25.22
2023-05-06T13:47:31.443Z,25.69
2023-05-06T13:49:58.474Z,25.87
2023-05-06T13:52:25.648Z,25.98
2023-05-06T13:54:52.654Z,25.76
2023-05-06T13:57:19.724Z,25.61
2023-05-06T13:59:46.667Z,25.62
2023-05-06T14:02:13.958Z,25.71
2023-05-06T14:04:41.149Z,25.63
2023-05-06T14:07:08.122Z,25.61
2023-05-06T14:09:35.125Z,25.81
2023-05-06T14:12:03.094Z,25.97
2023-05-06T14:14:30.053Z,25.61
2023-05-06T14:16:56.971Z,25.40
2023-05-06T14:19:24.418Z,25.62
2023-05-06T14:21:52.020Z,25.87
2023-05-06T14:24:18.957Z,26.02
2023-05-06T14:26:46.330Z,25.30
2023-05-06T14:29:13.264Z,25.35
2023-05-06T14:31:40.181Z,25.59
2023-05-06T14:34:07.235Z,25.97
2023-05-06T14:36:34.179Z,26.30
2023-05-06T14:39:01.085Z,26.17
2023-05-06T14:41:28.052Z,26.17
2023-05-06T14:43:55.010Z,25.76
2023-05-06T14:46:21.955Z,25.75
2023-05-06T14:48:49.069Z,25.67
2023-05-06T14:51:15.991Z,25.58
2023-05-06T14:53:42.960Z,26.16
2023-05-06T14:56:10.899Z,26.38
2023-05-06T14:58:39.593Z,26.49
2023-05-06T15:01:07.243Z,26.53
2023-05-06T15:03:34.352Z,26.49
2023-05-06T15:06:01.357Z,26.35
2023-05-06T15:08:28.368Z,26.33
2023-05-06T15:10:55.478Z,25.70
2023-05-06T15:13:22.552Z,25.81
2023-05-06T15:15:49.672Z,26.12
2023-05-06T15:18:16.668Z,27.55
2023-05-06T15:20:43.590Z,28.94
2023-05-06T15:23:10.921Z,31.04
2023-05-06T15:25:38.302Z,31.10
2023-05-06T15:28:06.048Z,32.66
2023-05-06T15:30:33.017Z,33.20
2023-05-06T15:33:01.981Z,32.53
2023-05-06T15:35:29.020Z,31.17
2023-05-06T15:37:59.203Z,31.79
2023-05-06T15:40:27.203Z,31.50
2023-05-06T15:42:54.320Z,32.70
2023-05-06T15:45:22.313Z,31.36
2023-05-06T15:48:00.085Z,30.60
2023-05-06T15:50:33.345Z,28.85
2023-05-06T15:53:02.031Z,28.50
2023-05-06T15:55:29.518Z,27.50
2023-05-06T15:57:59.154Z,27.74
2023-05-06T16:00:28.225Z,28.32
2023-05-06T16:02:55.291Z,29.73
2023-05-06T16:05:22.335Z,31.52
2023-05-06T16:07:49.856Z,32.87
2023-05-06T16:10:16.972Z,33.25
2023-05-06T16:12:43.952Z,33.44
2023-05-06T16:15:14.428Z,33.54
2023-05-06T16:17:41.708Z,33.06
2023-05-06T16:20:10.801Z,31.26
2023-05-06T16:22:41.410Z,31.67
2023-05-06T16:25:15.185Z,31.58
2023-05-06T16:27:42.287Z,32.14
2023-05-06T16:30:10.117Z,30.94
2023-05-06T16:32:37.297Z,29.89
2023-05-06T16:35:04.463Z,29.48
2023-05-06T16:37:31.468Z,28.62
2023-05-06T16:39:58.374Z,28.72
2023-05-06T16:42:25.334Z,28.91
2023-05-06T16:44:52.318Z,29.36
2023-05-06T16:47:23.841Z,30.59
2023-05-06T16:49:51.066Z,30.75
2023-05-06T16:52:18.589Z,31.21
2023-05-06T16:54:45.786Z,31.25
2023-05-06T16:57:12.755Z,30.86
2023-05-06T16:59:39.712Z,30.13
2023-05-06T17:02:07.803Z,29.87
2023-05-06T17:04:34.823Z,29.49
2023-05-06T17:07:01.820Z,28.62
2023-05-06T17:09:29.020Z,27.24
2023-05-06T17:11:56.150Z,26.35
2023-05-06T17:14:23.176Z,26.17
2023-05-06T17:16:52.299Z,25.42
2023-05-06T17:19:19.493Z,24.99
2023-05-06T17:21:49.547Z,24.77
2023-05-06T17:24:16.674Z,24.47
2023-05-06T17:26:43.665Z,24.35
2023-05-06T17:29:10.664Z,24.12
2023-05-06T17:31:37.562Z,23.92
2023-05-06T17:34:04.531Z,23.71
2023-05-06T17:36:31.893Z,23.67
2023-05-06T17:39:06.204Z,23.46
2023-05-06T17:41:33.895Z,23.27
2023-05-06T17:44:01.349Z,23.14
2023-05-06T17:46:28.439Z,23.06
2023-05-06T17:48:55.523Z,22.95
2023-05-06T17:51:22.526Z,22.86
2023-05-06T17:53:49.512Z,22.77
2023-05-06T17:56:16.859Z,22.70
2023-05-06T17:58:43.773Z,22.60
2023-05-06T18:01:10.788Z,22.57
2023-05-06T18:03:39.728Z,22.42
2023-05-06T18:06:06.947Z,22.29
2023-05-06T18:08:33.918Z,22.19
2023-05-06T18:11:00.942Z,22.13
2023-05-06T18:13:27.930Z,22.18
2023-05-06T18:15:55.017Z,22.24
2023-05-06T18:18:22.029Z,22.28
2023-05-06T18:20:48.996Z,22.18
2023-05-06T18:23:16.163Z,22.16
2023-05-06T18:25:43.167Z,22.16
2023-05-06T18:28:10.383Z,22.23
2023-05-06T18:30:37.429Z,22.18
2023-05-06T18:33:04.321Z,22.18
2023-05-06T18:35:31.380Z,22.05
2023-05-06T18:37:58.328Z,21.98
2023-05-06T18:40:25.271Z,21.89
2023-05-06T18:42:53.322Z,21.82
2023-05-06T18:45:20.517Z,21.88
2023-05-06T18:47:47.488Z,21.80
2023-05-06T18:50:14.627Z,21.79
2023-05-06T18:52:41.715Z,21.58
2023-05-06T18:55:09.316Z,21.43
2023-05-06T18:57:36.466Z,21.28
2023-05-06T19:00:05.083Z,21.21
2023-05-06T19:02:32.076Z,21.24
2023-05-06T19:04:59.079Z,21.17
2023-05-06T19:07:26.074Z,21.11
2023-05-06T19:09:53.094Z,21.13
2023-05-06T19:12:19.949Z,21.03
2023-05-06T19:14:46.866Z,21.13
2023-05-06T19:17:14.630Z,20.93
2023-05-06T19:19:41.986Z,20.88
2023-05-06T19:22:08.947Z,20.85
2023-05-06T19:24:35.921Z,20.77
2023-05-06T19:27:02.913Z,20.83
2023-05-06T19:29:29.919Z,20.78
2023-05-06T19:31:56.865Z,20.86
2023-05-06T19:34:23.815Z,20.86
2023-05-06T19:36:50.952Z,20.81
2023-05-06T19:39:17.946Z,20.75
2023-05-06T19:41:45.300Z,20.73
2023-05-06T19:44:13.772Z,20.73
2023-05-06T19:46:40.870Z,20.80
2023-05-06T19:49:07.915Z,20.83
2023-05-06T19:51:34.867Z,20.79
2023-05-06T19:54:01.870Z,20.89
2023-05-06T19:56:28.828Z,20.82
2023-05-06T19:58:55.835Z,20.86
2023-05-06T20:01:24.110Z,20.97
2023-05-06T20:03:51.450Z,20.80
2023-05-06T20:06:18.452Z,20.71
2023-05-06T20:08:45.386Z,20.66
2023-05-06T20:11:12.435Z,20.55
2023-05-06T20:13:39.530Z,20.60
2023-05-06T20:16:07.027Z,20.65
2023-05-06T20:18:34.050Z,20.57
2023-05-06T20:21:01.156Z,20.51
2023-05-06T20:23:28.089Z,20.51
2023-05-06T20:25:55.137Z,20.46
2023-05-06T20:28:22.146Z,20.47
2023-05-06T20:30:49.139Z,20.48
2023-05-06T20:33:16.815Z,20.42
2023-05-06T20:35:43.802Z,20.44
2023-05-06T20:38:11.203Z,20.40
2023-05-06T20:40:38.233Z,20.47
2023-05-06T20:43:05.363Z,20.48
2023-05-06T20:45:32.324Z,20.49
2023-05-06T20:47:59.325Z,20.45
2023-05-06T20:50:26.353Z,20.51
2023-05-06T20:52:54.621Z,20.52
2023-05-06T20:55:23.672Z,20.39
2023-05-06T20:57:51.117Z,20.24
2023-05-06T21:00:19.009Z,20.25
2023-05-06T21:02:46.135Z,20.17
2023-05-06T21:05:13.504Z,20.17
2023-05-06T21:07:40.951Z,20.06
2023-05-06T21:10:08.195Z,19.98
2023-05-06T21:12:35.383Z,19.89
2023-05-06T21:15:02.361Z,19.79
2023-05-06T21:17:29.467Z,19.78
2023-05-06T21:19:56.544Z,19.73
2023-05-06T21:22:24.315Z,19.63
2023-05-06T21:24:51.451Z,19.63
2023-05-06T21:27:18.672Z,19.64
2023-05-06T21:29:45.759Z,19.60
2023-05-06T21:32:12.944Z,19.59
2023-05-06T21:34:39.916Z,19.58
2023-05-06T21:37:06.910Z,19.55
2023-05-06T21:39:33.904Z,19.50
2023-05-06T21:42:01.059Z,19.53
2023-05-06T21:44:28.023Z,19.51
2023-05-06T21:46:55.023Z,19.57
2023-05-06T21:49:22.524Z,19.50
2023-05-06T21:51:49.666Z,19.61
2023-05-06T21:54:17.545Z,19.73
2023-05-06T21:56:45.098Z,19.74
2023-05-06T21:59:14.601Z,19.80
2023-05-06T22:01:41.659Z,19.61
2023-05-06T22:04:13.116Z,19.61
2023-05-06T22:06:40.604Z,19.45
2023-05-06T22:09:12.047Z,19.45
2023-05-06T22:11:40.318Z,19.37
2023-05-06T22:14:07.316Z,19.25
2023-05-06T22:16:35.766Z,19.33
2023-05-06T22:19:05.089Z,19.39
2023-05-06T22:21:34.745Z,19.30
2023-05-06T22:24:01.757Z,19.14
2023-05-06T22:26:28.883Z,18.96
2023-05-06T22:28:56.726Z,18.88
2023-05-06T22:31:25.018Z,18.86
2023-05-06T22:33:55.732Z,18.80
2023-05-06T22:36:22.873Z,18.78
2023-05-06T22:38:50.416Z,18.72
2023-05-06T22:41:18.569Z,18.86
2023-05-06T22:43:45.698Z,18.92
2023-05-06T22:46:12.970Z,18.96
2023-05-06T22:48:40.713Z,18.82
2023-05-06T22:51:11.042Z,18.67
2023-05-06T22:53:38.375Z,18.60
2023-05-06T22:56:05.742Z,18.52
2023-05-06T22:58:32.838Z,18.67
2023-05-06T23:01:00.014Z,18.45
2023-05-06T23:03:27.184Z,18.37
2023-05-06T23:05:57.872Z,18.15
2023-05-06T23:08:24.949Z,18.14
2023-05-06T23:10:52.058Z,18.04
2023-05-06T23:13:19.393Z,18.01
2023-05-06T23:15:46.772Z,18.01
2023-05-06T23:18:13.680Z,18.07
2023-05-06T23:20:40.668Z,18.03
2023-05-06T23:23:10.814Z,18.09
2023-05-06T23:25:38.128Z,18.31
2023-05-06T23:28:05.222Z,18.37
2023-05-06T23:30:32.304Z,18.13
2023-05-06T23:32:59.365Z,18.03
2023-05-06T23:35:26.335Z,17.94
2023-05-06T23:37:53.231Z,17.94
2023-05-06T23:40:20.232Z,17.89
2023-05-06T23:42:47.186Z,17.78
2023-05-06T23:45:14.165Z,17.75
2023-05-06T23:47:41.244Z,17.68
2023-05-06T23:50:09.047Z,17.59
2023-05-06T23:52:38.360Z,17.54
2023-05-06T23:55:06.185Z,17.57
2023-05-06T23:57:33.150Z,17.54
